sensor_id;sensor_type;location;lat;lon;timestamp;temperature;humidity
26537;DHT22;14204;51.262;5.488;2023-06-14T00:01:37;21.60;85.80
26537;DHT22;14204;51.262;5.488;2023-06-14T00:04:03;21.50;86.00
26537;DHT22;14204;51.262;5.488;2023-06-14T00:06:34;21.50;86.20
26537;DHT22;14204;51.262;5.488;2023-06-14T00:09:00;21.40;86.00
26537;DHT22;14204;51.262;5.488;2023-06-14T00:11:26;21.40;86.00
26537;DHT22;14204;51.262;5.488;2023-06-14T00:13:52;21.40;86.40
26537;DHT22;14204;51.262;5.488;2023-06-14T00:16:18;21.40;86.30
26537;DHT22;14204;51.262;5.488;2023-06-14T00:18:45;21.30;87.30
26537;DHT22;14204;51.262;5.488;2023-06-14T00:21:11;21.20;87.00
26537;DHT22;14204;51.262;5.488;2023-06-14T00:23:37;21.20;86.60
26537;DHT22;14204;51.262;5.488;2023-06-14T00:26:03;21.10;86.90
26537;DHT22;14204;51.262;5.488;2023-06-14T00:28:29;21.10;87.00
26537;DHT22;14204;51.262;5.488;2023-06-14T00:30:55;21.10;87.10
26537;DHT22;14204;51.262;5.488;2023-06-14T00:33:20;21.10;87.10
26537;DHT22;14204;51.262;5.488;2023-06-14T00:35:46;21.00;87.10
26537;DHT22;14204;51.262;5.488;2023-06-14T00:38:12;21.00;87.30
26537;DHT22;14204;51.262;5.488;2023-06-14T00:40:38;21.00;87.40
26537;DHT22;14204;51.262;5.488;2023-06-14T00:43:04;20.90;87.20
26537;DHT22;14204;51.262;5.488;2023-06-14T00:45:29;20.90;87.40
26537;DHT22;14204;51.262;5.488;2023-06-14T00:47:57;20.90;87.50
26537;DHT22;14204;51.262;5.488;2023-06-14T00:50:23;20.80;87.50
26537;DHT22;14204;51.262;5.488;2023-06-14T00:52:49;20.80;87.50
26537;DHT22;14204;51.262;5.488;2023-06-14T00:55:16;20.80;87.90
26537;DHT22;14204;51.262;5.488;2023-06-14T00:57:42;20.70;87.80
26537;DHT22;14204;51.262;5.488;2023-06-14T01:00:08;20.70;88.20
26537;DHT22;14204;51.262;5.488;2023-06-14T01:02:37;20.70;88.30
26537;DHT22;14204;51.262;5.488;2023-06-14T01:05:03;20.60;88.70
26537;DHT22;14204;51.262;5.488;2023-06-14T01:16:01;20.50;88.80
26537;DHT22;14204;51.262;5.488;2023-06-14T01:18:28;20.50;88.90
26537;DHT22;14204;51.262;5.488;2023-06-14T01:20:55;20.40;89.20
26537;DHT22;14204;51.262;5.488;2023-06-14T01:23:22;20.40;89.80
26537;DHT22;14204;51.262;5.488;2023-06-14T01:25:50;20.40;89.80
26537;DHT22;14204;51.262;5.488;2023-06-14T01:28:20;20.30;89.60
26537;DHT22;14204;51.262;5.488;2023-06-14T01:30:48;20.30;89.80
26537;DHT22;14204;51.262;5.488;2023-06-14T01:33:17;20.30;90.00
26537;DHT22;14204;51.262;5.488;2023-06-14T01:35:50;20.30;90.00
26537;DHT22;14204;51.262;5.488;2023-06-14T01:38:19;20.30;90.20
26537;DHT22;14204;51.262;5.488;2023-06-14T01:40:45;20.20;90.00
26537;DHT22;14204;51.262;5.488;2023-06-14T01:43:14;20.20;90.40
26537;DHT22;14204;51.262;5.488;2023-06-14T01:45:42;20.10;90.50
26537;DHT22;14204;51.262;5.488;2023-06-14T01:48:09;20.10;90.20
26537;DHT22;14204;51.262;5.488;2023-06-14T01:50:35;20.10;90.40
26537;DHT22;14204;51.262;5.488;2023-06-14T01:53:01;20.10;90.20
26537;DHT22;14204;51.262;5.488;2023-06-14T01:55:26;20.10;90.50
26537;DHT22;14204;51.262;5.488;2023-06-14T01:57:53;20.10;90.30
26537;DHT22;14204;51.262;5.488;2023-06-14T02:00:19;20.00;90.50
26537;DHT22;14204;51.262;5.488;2023-06-14T02:02:45;20.00;90.20
26537;DHT22;14204;51.262;5.488;2023-06-14T02:05:11;20.00;90.40
26537;DHT22;14204;51.262;5.488;2023-06-14T02:07:37;19.90;90.40
26537;DHT22;14204;51.262;5.488;2023-06-14T02:10:04;19.90;90.20
26537;DHT22;14204;51.262;5.488;2023-06-14T02:12:30;19.90;90.30
26537;DHT22;14204;51.262;5.488;2023-06-14T02:14:56;19.90;90.50
26537;DHT22;14204;51.262;5.488;2023-06-14T02:17:22;19.80;90.40
26537;DHT22;14204;51.262;5.488;2023-06-14T02:19:48;19.80;90.40
26537;DHT22;14204;51.262;5.488;2023-06-14T02:22:15;19.80;90.40
26537;DHT22;14204;51.262;5.488;2023-06-14T02:24:41;19.80;90.30
26537;DHT22;14204;51.262;5.488;2023-06-14T02:27:07;19.80;90.40
26537;DHT22;14204;51.262;5.488;2023-06-14T02:29:36;19.70;90.40
26537;DHT22;14204;51.262;5.488;2023-06-14T02:32:02;19.70;90.80
26537;DHT22;14204;51.262;5.488;2023-06-14T02:34:27;19.70;90.40
26537;DHT22;14204;51.262;5.488;2023-06-14T02:36:53;19.70;90.50
26537;DHT22;14204;51.262;5.488;2023-06-14T02:39:21;19.70;90.50
26537;DHT22;14204;51.262;5.488;2023-06-14T02:41:49;19.60;90.60
26537;DHT22;14204;51.262;5.488;2023-06-14T02:44:17;19.60;90.50
26537;DHT22;14204;51.262;5.488;2023-06-14T02:46:43;19.60;90.60
26537;DHT22;14204;51.262;5.488;2023-06-14T02:49:10;19.60;90.70
26537;DHT22;14204;51.262;5.488;2023-06-14T02:51:35;19.50;90.60
26537;DHT22;14204;51.262;5.488;2023-06-14T02:54:01;19.50;90.60
26537;DHT22;14204;51.262;5.488;2023-06-14T02:56:27;19.50;90.60
26537;DHT22;14204;51.262;5.488;2023-06-14T02:58:53;19.50;90.70
26537;DHT22;14204;51.262;5.488;2023-06-14T03:01:19;19.40;90.70
26537;DHT22;14204;51.262;5.488;2023-06-14T03:03:46;19.40;90.60
26537;DHT22;14204;51.262;5.488;2023-06-14T03:06:12;19.40;90.80
26537;DHT22;14204;51.262;5.488;2023-06-14T03:08:40;19.30;90.70
26537;DHT22;14204;51.262;5.488;2023-06-14T03:11:07;19.30;90.70
26537;DHT22;14204;51.262;5.488;2023-06-14T03:13:36;19.30;90.70
26537;DHT22;14204;51.262;5.488;2023-06-14T03:16:03;19.30;90.90
26537;DHT22;14204;51.262;5.488;2023-06-14T03:18:31;19.20;90.80
26537;DHT22;14204;51.262;5.488;2023-06-14T03:21:01;19.20;91.00
26537;DHT22;14204;51.262;5.488;2023-06-14T03:23:27;19.10;90.90
26537;DHT22;14204;51.262;5.488;2023-06-14T03:25:53;19.10;91.00
26537;DHT22;14204;51.262;5.488;2023-06-14T03:28:18;19.10;91.10
26537;DHT22;14204;51.262;5.488;2023-06-14T03:30:44;19.00;91.20
26537;DHT22;14204;51.262;5.488;2023-06-14T03:33:10;19.00;91.20
26537;DHT22;14204;51.262;5.488;2023-06-14T03:35:36;19.00;91.40
26537;DHT22;14204;51.262;5.488;2023-06-14T03:38:02;19.00;91.20
26537;DHT22;14204;51.262;5.488;2023-06-14T03:40:29;19.00;90.90
26537;DHT22;14204;51.262;5.488;2023-06-14T03:42:55;19.00;91.30
26537;DHT22;14204;51.262;5.488;2023-06-14T03:45:21;18.90;91.30
26537;DHT22;14204;51.262;5.488;2023-06-14T03:47:47;18.90;91.70
26537;DHT22;14204;51.262;5.488;2023-06-14T03:50:13;18.90;91.40
26537;DHT22;14204;51.262;5.488;2023-06-14T03:52:39;18.90;91.00
26537;DHT22;14204;51.262;5.488;2023-06-14T03:55:05;18.80;91.50
26537;DHT22;14204;51.262;5.488;2023-06-14T03:57:30;18.80;91.10
26537;DHT22;14204;51.262;5.488;2023-06-14T03:59:56;18.80;91.20
26537;DHT22;14204;51.262;5.488;2023-06-14T04:02:22;18.80;91.70
26537;DHT22;14204;51.262;5.488;2023-06-14T04:04:49;18.80;91.60
26537;DHT22;14204;51.262;5.488;2023-06-14T04:07:15;18.80;91.50
26537;DHT22;14204;51.262;5.488;2023-06-14T04:09:41;18.80;91.80
26537;DHT22;14204;51.262;5.488;2023-06-14T04:12:07;18.70;92.00
26537;DHT22;14204;51.262;5.488;2023-06-14T04:14:37;18.70;91.70
26537;DHT22;14204;51.262;5.488;2023-06-14T04:17:03;18.70;92.30
26537;DHT22;14204;51.262;5.488;2023-06-14T04:19:29;18.70;92.00
26537;DHT22;14204;51.262;5.488;2023-06-14T04:21:55;18.70;92.30
26537;DHT22;14204;51.262;5.488;2023-06-14T04:24:20;18.70;92.70
26537;DHT22;14204;51.262;5.488;2023-06-14T04:26:46;18.70;92.80
26537;DHT22;14204;51.262;5.488;2023-06-14T04:29:17;18.70;92.80
26537;DHT22;14204;51.262;5.488;2023-06-14T04:31:45;18.70;92.60
26537;DHT22;14204;51.262;5.488;2023-06-14T04:34:11;18.70;93.00
26537;DHT22;14204;51.262;5.488;2023-06-14T04:36:42;18.60;92.70
26537;DHT22;14204;51.262;5.488;2023-06-14T04:39:17;18.50;94.40
26537;DHT22;14204;51.262;5.488;2023-06-14T04:41:44;18.60;94.10
26537;DHT22;14204;51.262;5.488;2023-06-14T04:44:10;18.60;93.50
26537;DHT22;14204;51.262;5.488;2023-06-14T04:46:36;18.60;94.20
26537;DHT22;14204;51.262;5.488;2023-06-14T04:49:21;18.60;95.00
26537;DHT22;14204;51.262;5.488;2023-06-14T04:51:48;18.60;94.80
26537;DHT22;14204;51.262;5.488;2023-06-14T04:54:23;18.60;94.60
26537;DHT22;14204;51.262;5.488;2023-06-14T04:56:50;18.60;94.00
26537;DHT22;14204;51.262;5.488;2023-06-14T04:59:16;18.70;95.00
26537;DHT22;14204;51.262;5.488;2023-06-14T05:01:43;18.70;95.10
26537;DHT22;14204;51.262;5.488;2023-06-14T05:04:16;18.70;95.30
26537;DHT22;14204;51.262;5.488;2023-06-14T05:06:43;18.70;95.90
26537;DHT22;14204;51.262;5.488;2023-06-14T05:09:14;18.70;95.60
26537;DHT22;14204;51.262;5.488;2023-06-14T05:11:40;18.80;95.40
26537;DHT22;14204;51.262;5.488;2023-06-14T05:14:12;18.80;96.80
26537;DHT22;14204;51.262;5.488;2023-06-14T05:16:38;18.80;95.80
26537;DHT22;14204;51.262;5.488;2023-06-14T05:19:04;18.80;95.80
26537;DHT22;14204;51.262;5.488;2023-06-14T05:21:30;18.90;96.80
26537;DHT22;14204;51.262;5.488;2023-06-14T05:23:57;18.90;96.70
26537;DHT22;14204;51.262;5.488;2023-06-14T05:26:23;18.90;98.00
26537;DHT22;14204;51.262;5.488;2023-06-14T05:28:56;18.90;97.00
26537;DHT22;14204;51.262;5.488;2023-06-14T05:31:26;18.90;98.40
26537;DHT22;14204;51.262;5.488;2023-06-14T05:33:53;19.00;97.30
26537;DHT22;14204;51.262;5.488;2023-06-14T05:36:21;19.00;98.10
26537;DHT22;14204;51.262;5.488;2023-06-14T05:38:47;19.00;97.50
26537;DHT22;14204;51.262;5.488;2023-06-14T05:41:13;18.80;99.90
26537;DHT22;14204;51.262;5.488;2023-06-14T05:43:39;18.90;99.10
26537;DHT22;14204;51.262;5.488;2023-06-14T05:46:05;18.90;98.10
26537;DHT22;14204;51.262;5.488;2023-06-14T05:48:31;18.90;97.70
26537;DHT22;14204;51.262;5.488;2023-06-14T05:50:57;18.90;98.40
26537;DHT22;14204;51.262;5.488;2023-06-14T05:53:23;19.00;99.40
26537;DHT22;14204;51.262;5.488;2023-06-14T05:55:49;19.00;99.40
26537;DHT22;14204;51.262;5.488;2023-06-14T05:58:17;19.00;98.30
26537;DHT22;14204;51.262;5.488;2023-06-14T06:00:42;19.10;98.10
26537;DHT22;14204;51.262;5.488;2023-06-14T06:03:08;19.10;98.40
26537;DHT22;14204;51.262;5.488;2023-06-14T06:05:34;19.10;98.10
26537;DHT22;14204;51.262;5.488;2023-06-14T06:08:00;19.10;97.60
26537;DHT22;14204;51.262;5.488;2023-06-14T06:10:26;19.20;98.00
26537;DHT22;14204;51.262;5.488;2023-06-14T06:12:51;19.20;98.10
26537;DHT22;14204;51.262;5.488;2023-06-14T06:15:17;19.20;98.30
26537;DHT22;14204;51.262;5.488;2023-06-14T06:17:44;19.30;98.20
26537;DHT22;14204;51.262;5.488;2023-06-14T06:20:10;19.30;98.90
26537;DHT22;14204;51.262;5.488;2023-06-14T06:22:37;19.50;98.80
26537;DHT22;14204;51.262;5.488;2023-06-14T06:25:04;19.50;98.30
26537;DHT22;14204;51.262;5.488;2023-06-14T06:27:30;19.50;97.60
26537;DHT22;14204;51.262;5.488;2023-06-14T06:29:56;19.60;98.60
26537;DHT22;14204;51.262;5.488;2023-06-14T06:32:21;19.60;97.70
26537;DHT22;14204;51.262;5.488;2023-06-14T06:34:47;19.70;97.60
26537;DHT22;14204;51.262;5.488;2023-06-14T06:37:13;19.80;98.40
26537;DHT22;14204;51.262;5.488;2023-06-14T06:39:39;19.80;98.60
26537;DHT22;14204;51.262;5.488;2023-06-14T06:42:05;20.00;98.20
26537;DHT22;14204;51.262;5.488;2023-06-14T06:44:32;20.10;98.10
26537;DHT22;14204;51.262;5.488;2023-06-14T06:46:58;20.20;97.80
26537;DHT22;14204;51.262;5.488;2023-06-14T06:49:23;20.40;96.90
26537;DHT22;14204;51.262;5.488;2023-06-14T06:52:06;20.50;97.20
26537;DHT22;14204;51.262;5.488;2023-06-14T06:54:32;20.60;96.80
26537;DHT22;14204;51.262;5.488;2023-06-14T06:56:59;20.70;97.20
26537;DHT22;14204;51.262;5.488;2023-06-14T06:59:25;20.90;96.70
26537;DHT22;14204;51.262;5.488;2023-06-14T07:01:51;20.90;96.60
26537;DHT22;14204;51.262;5.488;2023-06-14T07:04:17;21.10;95.90
26537;DHT22;14204;51.262;5.488;2023-06-14T07:06:43;21.20;95.60
26537;DHT22;14204;51.262;5.488;2023-06-14T07:09:09;21.40;96.40
26537;DHT22;14204;51.262;5.488;2023-06-14T07:11:42;21.60;95.90
26537;DHT22;14204;51.262;5.488;2023-06-14T07:14:07;21.70;94.30
26537;DHT22;14204;51.262;5.488;2023-06-14T07:16:33;21.90;93.80
26537;DHT22;14204;51.262;5.488;2023-06-14T07:18:59;22.00;93.00
26537;DHT22;14204;51.262;5.488;2023-06-14T07:21:26;22.20;92.60
26537;DHT22;14204;51.262;5.488;2023-06-14T07:23:53;22.20;91.50
26537;DHT22;14204;51.262;5.488;2023-06-14T07:26:19;22.10;92.40
26537;DHT22;14204;51.262;5.488;2023-06-14T07:28:46;22.40;92.40
26537;DHT22;14204;51.262;5.488;2023-06-14T07:31:13;22.50;91.80
26537;DHT22;14204;51.262;5.488;2023-06-14T07:33:40;22.70;90.60
26537;DHT22;14204;51.262;5.488;2023-06-14T07:36:05;22.80;90.60
26537;DHT22;14204;51.262;5.488;2023-06-14T07:38:31;22.90;91.00
26537;DHT22;14204;51.262;5.488;2023-06-14T07:40:57;23.00;90.60
26537;DHT22;14204;51.262;5.488;2023-06-14T07:43:22;23.20;91.10
26537;DHT22;14204;51.262;5.488;2023-06-14T07:45:48;23.20;89.10
26537;DHT22;14204;51.262;5.488;2023-06-14T07:48:14;23.40;90.10
26537;DHT22;14204;51.262;5.488;2023-06-14T07:50:39;23.40;91.50
26537;DHT22;14204;51.262;5.488;2023-06-14T07:53:05;23.60;90.10
26537;DHT22;14204;51.262;5.488;2023-06-14T07:55:31;23.60;88.60
26537;DHT22;14204;51.262;5.488;2023-06-14T07:57:58;23.90;88.20
26537;DHT22;14204;51.262;5.488;2023-06-14T08:00:24;24.00;89.90
26537;DHT22;14204;51.262;5.488;2023-06-14T08:02:49;24.20;86.80
26537;DHT22;14204;51.262;5.488;2023-06-14T08:05:17;24.20;85.80
26537;DHT22;14204;51.262;5.488;2023-06-14T08:07:43;24.30;83.10
26537;DHT22;14204;51.262;5.488;2023-06-14T08:10:09;24.40;87.50
26537;DHT22;14204;51.262;5.488;2023-06-14T08:12:34;24.40;84.50
26537;DHT22;14204;51.262;5.488;2023-06-14T08:15:00;24.50;82.90
26537;DHT22;14204;51.262;5.488;2023-06-14T08:17:26;24.60;81.80
26537;DHT22;14204;51.262;5.488;2023-06-14T08:19:52;24.80;84.30
26537;DHT22;14204;51.262;5.488;2023-06-14T08:22:22;24.70;84.60
26537;DHT22;14204;51.262;5.488;2023-06-14T08:24:50;24.80;84.60
26537;DHT22;14204;51.262;5.488;2023-06-14T08:27:15;24.90;80.80
26537;DHT22;14204;51.262;5.488;2023-06-14T08:29:42;25.10;80.70
26537;DHT22;14204;51.262;5.488;2023-06-14T08:32:09;25.20;78.80
26537;DHT22;14204;51.262;5.488;2023-06-14T08:34:35;25.30;78.80
26537;DHT22;14204;51.262;5.488;2023-06-14T08:37:05;25.40;79.10
26537;DHT22;14204;51.262;5.488;2023-06-14T08:39:32;25.40;80.50
26537;DHT22;14204;51.262;5.488;2023-06-14T08:41:58;25.50;80.30
26537;DHT22;14204;51.262;5.488;2023-06-14T08:44:24;25.60;77.00
26537;DHT22;14204;51.262;5.488;2023-06-14T08:46:50;25.80;80.20
26537;DHT22;14204;51.262;5.488;2023-06-14T08:49:19;25.90;78.60
26537;DHT22;14204;51.262;5.488;2023-06-14T08:51:46;25.90;76.90
26537;DHT22;14204;51.262;5.488;2023-06-14T08:54:17;26.20;78.90
26537;DHT22;14204;51.262;5.488;2023-06-14T08:56:46;26.10;79.60
26537;DHT22;14204;51.262;5.488;2023-06-14T08:59:13;26.20;77.80
26537;DHT22;14204;51.262;5.488;2023-06-14T09:01:40;26.30;77.60
26537;DHT22;14204;51.262;5.488;2023-06-14T09:04:06;26.40;75.10
26537;DHT22;14204;51.262;5.488;2023-06-14T09:06:32;26.50;76.60
26537;DHT22;14204;51.262;5.488;2023-06-14T09:08:58;26.70;76.70
26537;DHT22;14204;51.262;5.488;2023-06-14T09:11:24;26.70;73.90
26537;DHT22;14204;51.262;5.488;2023-06-14T09:13:51;26.80;74.10
26537;DHT22;14204;51.262;5.488;2023-06-14T09:16:17;27.10;75.10
26537;DHT22;14204;51.262;5.488;2023-06-14T09:18:44;27.10;78.00
26537;DHT22;14204;51.262;5.488;2023-06-14T09:21:14;27.10;77.20
26537;DHT22;14204;51.262;5.488;2023-06-14T09:23:42;27.30;71.80
26537;DHT22;14204;51.262;5.488;2023-06-14T09:26:11;27.40;73.70
26537;DHT22;14204;51.262;5.488;2023-06-14T09:28:44;27.30;74.20
26537;DHT22;14204;51.262;5.488;2023-06-14T09:31:18;27.60;76.10
26537;DHT22;14204;51.262;5.488;2023-06-14T09:33:46;27.60;72.00
26537;DHT22;14204;51.262;5.488;2023-06-14T09:39:01;27.70;69.30
26537;DHT22;14204;51.262;5.488;2023-06-14T09:43:59;27.80;66.40
26537;DHT22;14204;51.262;5.488;2023-06-14T09:46:28;27.80;64.30
26537;DHT22;14204;51.262;5.488;2023-06-14T09:48:58;28.00;64.60
26537;DHT22;14204;51.262;5.488;2023-06-14T09:51:25;28.10;66.70
26537;DHT22;14204;51.262;5.488;2023-06-14T09:53:52;28.20;64.60
26537;DHT22;14204;51.262;5.488;2023-06-14T09:56:26;28.30;65.30
26537;DHT22;14204;51.262;5.488;2023-06-14T09:58:55;28.30;61.90
26537;DHT22;14204;51.262;5.488;2023-06-14T10:01:24;28.50;67.00
26537;DHT22;14204;51.262;5.488;2023-06-14T10:03:55;28.40;65.40
26537;DHT22;14204;51.262;5.488;2023-06-14T10:06:24;28.40;63.80
26537;DHT22;14204;51.262;5.488;2023-06-14T10:08:52;28.50;60.40
26537;DHT22;14204;51.262;5.488;2023-06-14T10:11:20;28.40;60.20
26537;DHT22;14204;51.262;5.488;2023-06-14T10:13:47;28.40;60.10
26537;DHT22;14204;51.262;5.488;2023-06-14T10:16:20;28.30;62.70
26537;DHT22;14204;51.262;5.488;2023-06-14T10:24:10;28.60;61.70
26537;DHT22;14204;51.262;5.488;2023-06-14T10:26:57;28.60;59.90
26537;DHT22;14204;51.262;5.488;2023-06-14T10:29:23;28.70;61.30
26537;DHT22;14204;51.262;5.488;2023-06-14T10:31:50;28.90;62.30
26537;DHT22;14204;51.262;5.488;2023-06-14T10:34:42;29.10;63.30
26537;DHT22;14204;51.262;5.488;2023-06-14T10:37:13;28.90;63.10
26537;DHT22;14204;51.262;5.488;2023-06-14T10:39:43;28.70;57.50
26537;DHT22;14204;51.262;5.488;2023-06-14T10:42:12;28.90;60.90
26537;DHT22;14204;51.262;5.488;2023-06-14T10:49:49;28.90;58.80
26537;DHT22;14204;51.262;5.488;2023-06-14T10:52:16;28.90;59.00
26537;DHT22;14204;51.262;5.488;2023-06-14T10:57:27;29.20;59.50
26537;DHT22;14204;51.262;5.488;2023-06-14T10:59:53;29.10;58.60
26537;DHT22;14204;51.262;5.488;2023-06-14T11:04:48;29.40;59.60
26537;DHT22;14204;51.262;5.488;2023-06-14T11:12:56;29.80;58.50
26537;DHT22;14204;51.262;5.488;2023-06-14T11:15:31;29.80;59.40
26537;DHT22;14204;51.262;5.488;2023-06-14T11:17:57;29.70;60.50
26537;DHT22;14204;51.262;5.488;2023-06-14T11:20:26;29.60;60.20
26537;DHT22;14204;51.262;5.488;2023-06-14T11:22:53;29.60;61.50
26537;DHT22;14204;51.262;5.488;2023-06-14T11:25:19;29.80;60.00
26537;DHT22;14204;51.262;5.488;2023-06-14T11:27:45;29.70;61.20
26537;DHT22;14204;51.262;5.488;2023-06-14T11:30:13;29.60;59.80
26537;DHT22;14204;51.262;5.488;2023-06-14T11:32:39;29.80;59.50
26537;DHT22;14204;51.262;5.488;2023-06-14T11:35:05;29.70;61.00
26537;DHT22;14204;51.262;5.488;2023-06-14T11:37:32;29.70;61.60
26537;DHT22;14204;51.262;5.488;2023-06-14T11:40:01;29.80;60.60
26537;DHT22;14204;51.262;5.488;2023-06-14T11:42:28;29.90;61.80
26537;DHT22;14204;51.262;5.488;2023-06-14T11:44:54;30.00;61.60
26537;DHT22;14204;51.262;5.488;2023-06-14T11:47:22;30.00;59.50
26537;DHT22;14204;51.262;5.488;2023-06-14T11:49:48;29.90;60.50
26537;DHT22;14204;51.262;5.488;2023-06-14T11:52:14;29.90;59.10
26537;DHT22;14204;51.262;5.488;2023-06-14T11:54:40;29.90;61.30
26537;DHT22;14204;51.262;5.488;2023-06-14T11:57:09;30.20;59.40
26537;DHT22;14204;51.262;5.488;2023-06-14T11:59:43;30.30;59.30
26537;DHT22;14204;51.262;5.488;2023-06-14T12:02:10;30.10;62.30
26537;DHT22;14204;51.262;5.488;2023-06-14T12:04:41;30.00;63.00
26537;DHT22;14204;51.262;5.488;2023-06-14T12:07:10;30.10;60.60
26537;DHT22;14204;51.262;5.488;2023-06-14T12:10:03;29.90;60.40
26537;DHT22;14204;51.262;5.488;2023-06-14T12:12:35;29.80;62.80
26537;DHT22;14204;51.262;5.488;2023-06-14T12:15:03;29.80;62.70
26537;DHT22;14204;51.262;5.488;2023-06-14T12:17:35;30.10;61.80
26537;DHT22;14204;51.262;5.488;2023-06-14T12:20:19;30.10;61.50
26537;DHT22;14204;51.262;5.488;2023-06-14T12:22:54;30.00;61.20
26537;DHT22;14204;51.262;5.488;2023-06-14T12:25:34;30.00;62.00
26537;DHT22;14204;51.262;5.488;2023-06-14T12:28:07;30.10;61.40
26537;DHT22;14204;51.262;5.488;2023-06-14T12:30:37;30.20;60.70
26537;DHT22;14204;51.262;5.488;2023-06-14T12:33:03;30.20;59.70
26537;DHT22;14204;51.262;5.488;2023-06-14T12:35:29;30.30;62.10
26537;DHT22;14204;51.262;5.488;2023-06-14T12:37:55;30.30;61.70
26537;DHT22;14204;51.262;5.488;2023-06-14T12:40:21;30.10;60.10
26537;DHT22;14204;51.262;5.488;2023-06-14T12:42:47;30.00;62.50
26537;DHT22;14204;51.262;5.488;2023-06-14T12:45:13;29.90;60.90
26537;DHT22;14204;51.262;5.488;2023-06-14T12:47:39;29.90;59.90
26537;DHT22;14204;51.262;5.488;2023-06-14T12:50:05;30.00;62.60
26537;DHT22;14204;51.262;5.488;2023-06-14T12:52:32;30.00;61.80
26537;DHT22;14204;51.262;5.488;2023-06-14T12:55:04;30.20;60.00
26537;DHT22;14204;51.262;5.488;2023-06-14T12:57:30;30.00;59.80
26537;DHT22;14204;51.262;5.488;2023-06-14T12:59:55;30.30;59.80
26537;DHT22;14204;51.262;5.488;2023-06-14T13:02:21;30.40;59.90
26537;DHT22;14204;51.262;5.488;2023-06-14T13:04:49;30.20;59.30
26537;DHT22;14204;51.262;5.488;2023-06-14T13:07:14;30.20;58.60
26537;DHT22;14204;51.262;5.488;2023-06-14T13:09:41;30.10;60.10
26537;DHT22;14204;51.262;5.488;2023-06-14T13:12:07;30.00;59.40
26537;DHT22;14204;51.262;5.488;2023-06-14T13:14:33;29.80;59.80
26537;DHT22;14204;51.262;5.488;2023-06-14T13:16:59;29.70;60.40
26537;DHT22;14204;51.262;5.488;2023-06-14T13:19:25;29.70;58.70
26537;DHT22;14204;51.262;5.488;2023-06-14T13:21:50;29.70;58.40
26537;DHT22;14204;51.262;5.488;2023-06-14T13:24:16;30.00;58.90
26537;DHT22;14204;51.262;5.488;2023-06-14T13:26:42;30.10;59.00
26537;DHT22;14204;51.262;5.488;2023-06-14T13:29:08;30.30;59.60
26537;DHT22;14204;51.262;5.488;2023-06-14T13:31:34;30.50;59.30
26537;DHT22;14204;51.262;5.488;2023-06-14T13:33:59;30.50;59.20
26537;DHT22;14204;51.262;5.488;2023-06-14T13:36:25;30.50;59.60
26537;DHT22;14204;51.262;5.488;2023-06-14T13:38:51;30.40;60.60
26537;DHT22;14204;51.262;5.488;2023-06-14T13:41:18;30.50;57.70
26537;DHT22;14204;51.262;5.488;2023-06-14T13:43:44;29.90;57.40
26537;DHT22;14204;51.262;5.488;2023-06-14T13:46:09;30.10;59.10
26537;DHT22;14204;51.262;5.488;2023-06-14T13:48:35;30.20;57.90
26537;DHT22;14204;51.262;5.488;2023-06-14T13:51:00;30.10;57.80
26537;DHT22;14204;51.262;5.488;2023-06-14T13:53:26;30.30;57.20
26537;DHT22;14204;51.262;5.488;2023-06-14T13:55:52;30.30;58.20
26537;DHT22;14204;51.262;5.488;2023-06-14T13:58:19;30.10;59.30
26537;DHT22;14204;51.262;5.488;2023-06-14T14:00:44;30.10;58.20
26537;DHT22;14204;51.262;5.488;2023-06-14T14:03:10;30.30;59.00
26537;DHT22;14204;51.262;5.488;2023-06-14T14:05:36;30.30;58.80
26537;DHT22;14204;51.262;5.488;2023-06-14T14:08:02;30.10;59.70
26537;DHT22;14204;51.262;5.488;2023-06-14T14:10:29;29.90;59.70
26537;DHT22;14204;51.262;5.488;2023-06-14T14:12:55;29.90;57.70
26537;DHT22;14204;51.262;5.488;2023-06-14T14:15:20;29.80;58.10
26537;DHT22;14204;51.262;5.488;2023-06-14T14:17:46;29.70;58.30
26537;DHT22;14204;51.262;5.488;2023-06-14T14:20:12;29.90;58.80
26537;DHT22;14204;51.262;5.488;2023-06-14T14:22:41;30.10;58.40
26537;DHT22;14204;51.262;5.488;2023-06-14T14:25:08;29.90;58.60
26537;DHT22;14204;51.262;5.488;2023-06-14T14:27:33;29.80;59.00
26537;DHT22;14204;51.262;5.488;2023-06-14T14:29:59;29.90;59.40
26537;DHT22;14204;51.262;5.488;2023-06-14T14:32:25;29.80;60.00
26537;DHT22;14204;51.262;5.488;2023-06-14T14:34:51;29.50;59.00
26537;DHT22;14204;51.262;5.488;2023-06-14T14:37:16;29.60;59.80
26537;DHT22;14204;51.262;5.488;2023-06-14T14:39:44;29.50;60.10
26537;DHT22;14204;51.262;5.488;2023-06-14T14:42:10;29.50;59.00
26537;DHT22;14204;51.262;5.488;2023-06-14T14:44:37;29.80;59.00
26537;DHT22;14204;51.262;5.488;2023-06-14T14:47:03;29.90;59.80
26537;DHT22;14204;51.262;5.488;2023-06-14T14:49:30;30.00;58.90
26537;DHT22;14204;51.262;5.488;2023-06-14T14:51:56;30.00;59.60
26537;DHT22;14204;51.262;5.488;2023-06-14T14:54:22;29.90;58.60
26537;DHT22;14204;51.262;5.488;2023-06-14T14:56:48;29.70;60.10
26537;DHT22;14204;51.262;5.488;2023-06-14T14:59:14;29.70;59.20
26537;DHT22;14204;51.262;5.488;2023-06-14T15:01:41;29.70;60.50
26537;DHT22;14204;51.262;5.488;2023-06-14T15:04:07;29.70;59.70
26537;DHT22;14204;51.262;5.488;2023-06-14T15:06:32;29.30;60.20
26537;DHT22;14204;51.262;5.488;2023-06-14T15:09:01;29.30;60.00
26537;DHT22;14204;51.262;5.488;2023-06-14T15:11:26;29.50;60.50
26537;DHT22;14204;51.262;5.488;2023-06-14T15:13:52;29.60;60.60
26537;DHT22;14204;51.262;5.488;2023-06-14T15:16:18;29.70;59.60
26537;DHT22;14204;51.262;5.488;2023-06-14T15:18:44;29.50;59.40
26537;DHT22;14204;51.262;5.488;2023-06-14T15:21:10;29.60;58.90
26537;DHT22;14204;51.262;5.488;2023-06-14T15:23:35;29.60;59.40
26537;DHT22;14204;51.262;5.488;2023-06-14T15:26:01;29.60;58.80
26537;DHT22;14204;51.262;5.488;2023-06-14T15:28:26;29.60;59.50
26537;DHT22;14204;51.262;5.488;2023-06-14T15:30:55;29.60;60.80
26537;DHT22;14204;51.262;5.488;2023-06-14T15:33:20;29.80;61.80
26537;DHT22;14204;51.262;5.488;2023-06-14T15:35:46;29.60;61.00
26537;DHT22;14204;51.262;5.488;2023-06-14T15:38:12;29.50;59.80
26537;DHT22;14204;51.262;5.488;2023-06-14T15:40:38;29.30;59.30
26537;DHT22;14204;51.262;5.488;2023-06-14T15:43:03;29.40;61.30
26537;DHT22;14204;51.262;5.488;2023-06-14T15:45:29;29.30;60.50
26537;DHT22;14204;51.262;5.488;2023-06-14T15:47:55;29.40;60.10
26537;DHT22;14204;51.262;5.488;2023-06-14T15:50:21;29.40;61.40
26537;DHT22;14204;51.262;5.488;2023-06-14T15:52:47;29.10;60.30
26537;DHT22;14204;51.262;5.488;2023-06-14T15:55:12;29.00;59.40
26537;DHT22;14204;51.262;5.488;2023-06-14T15:57:38;28.90;60.40
26537;DHT22;14204;51.262;5.488;2023-06-14T16:00:04;28.80;61.60
26537;DHT22;14204;51.262;5.488;2023-06-14T16:02:30;28.90;61.60
26537;DHT22;14204;51.262;5.488;2023-06-14T16:04:56;29.00;61.00